Aeroporto :
LOGIN :

Iscrizione | Disclaimer

   EN    FR    IT 

 










Sommario :    VFR   VFR Marginale   IFR   IFR Intensivo   IFR Molto Intensivo
Visibilità : 
Base nubi : 
>= 8 km
>= 3000ft
5 / 8 km
1000 / 3000 ft
1500m / 5 km
500 / 1000 ft
800 / 1500m
200 / 500 ft
< 800m
< 200 ft
Simboli :   Temporali  Nebbia  Neve Forte  Precipitazioni Forti  Vento > 20 kt
SIGMETs :   Varie  Temporali  Ghiacco  Turbolenza  Onda orograficha  Ceneri Vulcaniche






- Altitudine del aeroporto : 327 ft
- Codice IATA : BHX


EGBB - Birmingham

ULTIMO METAR :
  • 190650Z 32002KT 9000 2000E R15/0400 BCFG NSC M02/M03 Q1042

METARs OBSOLETI :
  • 190620Z 31001KT 9000 R15/0225 PRFG VV/// M02/M02 Q1041
  • 190550Z 00000KT 5000 R15/0300 MIFG BCFG NSC M02/M03 Q1041
  • 190520Z 00000KT 4000 R15/0250 MIFG BCFG NSC M02/M03 Q1041
  • 190450Z 30002KT 4000 R15/0650 MIFG BCFG FEW003 00/00 Q1040
  • 190420Z 29004KT 8000 MIFG NSC 01/00 Q1040
  • 190350Z 30003KT 9000 MIFG NSC 01/00 Q1040

TAF TAF EGBB
Valido dal 19 a 06 ore il 20 a 06 ore UTC


190501Z 1906/2006 29004KT 6000 FEW030
TEMPO 1906/1912 3000 BR MIFG
PROB30 1906/1911 0300 FZFG VV///
PROB40 1912/1918 9999
TEMPO 1921/2006 3000 BR MIFG
PROB30 1921/2006 0300 FG FZFG VV///
ATIS : +44 121 780 0910



MetMap, La meteo Aeronautica in un colpo d'occhio ! - Copyright ORBIFLY Dicembre 2007 - Disclaimer

ORBIFLY MET'MAP TEAM :

Programmazione e sviluppo : Alexandra Zaïnal
Concezione : Baudouin d'Aumeries
Aiuto per la programmazione : Marc-Olivier Méhu
Supporto tecnico e logistico : Manuel Goepfert
Aiuto per la traduzione : Arnaldo La Scala

Contatto : metmap@orbifly.com




FONTI E CREDITI :

   NOAA